sensor_id;sensor_type;location;lat;lon;timestamp;temperature;humidity
19586;DHT22;9939;49.246;9.106;2023-02-03T00:02:18;6.40;99.90
19586;DHT22;9939;49.246;9.106;2023-02-03T00:04:45;6.40;99.90
19586;DHT22;9939;49.246;9.106;2023-02-03T00:07:12;6.40;99.90
19586;DHT22;9939;49.246;9.106;2023-02-03T00:09:39;6.50;99.90
19586;DHT22;9939;49.246;9.106;2023-02-03T00:12:06;6.50;99.90
19586;DHT22;9939;49.246;9.106;2023-02-03T00:14:34;6.40;99.90
19586;DHT22;9939;49.246;9.106;2023-02-03T00:17:03;6.50;99.90
19586;DHT22;9939;49.246;9.106;2023-02-03T00:19:30;6.50;99.90
19586;DHT22;9939;49.246;9.106;2023-02-03T00:21:57;6.50;99.90
19586;DHT22;9939;49.246;9.106;2023-02-03T00:24:24;6.50;99.90
19586;DHT22;9939;49.246;9.106;2023-02-03T00:26:51;6.60;99.90
19586;DHT22;9939;49.246;9.106;2023-02-03T00:29:18;6.50;99.90
19586;DHT22;9939;49.246;9.106;2023-02-03T00:31:47;6.50;99.90
19586;DHT22;9939;49.246;9.106;2023-02-03T00:34:13;6.50;99.90
19586;DHT22;9939;49.246;9.106;2023-02-03T00:36:40;6.50;99.90
19586;DHT22;9939;49.246;9.106;2023-02-03T00:39:08;6.50;99.90
19586;DHT22;9939;49.246;9.106;2023-02-03T00:41:35;6.50;99.90
19586;DHT22;9939;49.246;9.106;2023-02-03T00:44:02;6.50;99.90
19586;DHT22;9939;49.246;9.106;2023-02-03T00:46:28;6.50;99.90
19586;DHT22;9939;49.246;9.106;2023-02-03T00:48:56;6.50;99.90
19586;DHT22;9939;49.246;9.106;2023-02-03T00:51:22;6.50;99.90
19586;DHT22;9939;49.246;9.106;2023-02-03T00:53:49;6.50;99.90
19586;DHT22;9939;49.246;9.106;2023-02-03T00:56:16;6.50;99.90
19586;DHT22;9939;49.246;9.106;2023-02-03T00:58:43;6.50;99.90
19586;DHT22;9939;49.246;9.106;2023-02-03T01:01:10;6.50;99.90
19586;DHT22;9939;49.246;9.106;2023-02-03T01:03:37;6.40;99.90
19586;DHT22;9939;49.246;9.106;2023-02-03T01:06:11;6.50;99.90
19586;DHT22;9939;49.246;9.106;2023-02-03T01:08:39;6.50;99.90
19586;DHT22;9939;49.246;9.106;2023-02-03T01:11:07;6.50;99.90
19586;DHT22;9939;49.246;9.106;2023-02-03T01:13:34;6.50;99.90
19586;DHT22;9939;49.246;9.106;2023-02-03T01:16:01;6.40;99.90
19586;DHT22;9939;49.246;9.106;2023-02-03T01:18:28;6.50;99.90
19586;DHT22;9939;49.246;9.106;2023-02-03T01:20:55;6.40;99.90
19586;DHT22;9939;49.246;9.106;2023-02-03T01:23:21;6.40;99.90
19586;DHT22;9939;49.246;9.106;2023-02-03T01:25:48;6.50;99.90
19586;DHT22;9939;49.246;9.106;2023-02-03T01:28:15;6.40;99.90
19586;DHT22;9939;49.246;9.106;2023-02-03T01:30:42;6.50;99.90
19586;DHT22;9939;49.246;9.106;2023-02-03T01:33:09;6.50;99.90
19586;DHT22;9939;49.246;9.106;2023-02-03T01:35:35;6.50;99.90
19586;DHT22;9939;49.246;9.106;2023-02-03T01:38:02;6.50;99.90
19586;DHT22;9939;49.246;9.106;2023-02-03T01:40:30;6.50;99.90
19586;DHT22;9939;49.246;9.106;2023-02-03T01:42:57;6.60;99.90
19586;DHT22;9939;49.246;9.106;2023-02-03T01:45:24;6.50;99.90
19586;DHT22;9939;49.246;9.106;2023-02-03T01:47:52;6.60;99.90
19586;DHT22;9939;49.246;9.106;2023-02-03T01:50:25;6.50;99.90
19586;DHT22;9939;49.246;9.106;2023-02-03T01:52:55;6.50;99.90
19586;DHT22;9939;49.246;9.106;2023-02-03T01:55:24;6.50;99.90
19586;DHT22;9939;49.246;9.106;2023-02-03T01:58:03;6.60;99.90
19586;DHT22;9939;49.246;9.106;2023-02-03T02:00:32;6.50;99.90
19586;DHT22;9939;49.246;9.106;2023-02-03T02:02:59;6.60;99.90
19586;DHT22;9939;49.246;9.106;2023-02-03T02:07:55;6.60;99.90
19586;DHT22;9939;49.246;9.106;2023-02-03T02:10:22;6.50;99.90
19586;DHT22;9939;49.246;9.106;2023-02-03T02:12:49;6.50;99.90
19586;DHT22;9939;49.246;9.106;2023-02-03T02:15:16;6.50;99.90
19586;DHT22;9939;49.246;9.106;2023-02-03T02:20:30;6.40;99.90
19586;DHT22;9939;49.246;9.106;2023-02-03T02:34:12;6.30;99.90
19586;DHT22;9939;49.246;9.106;2023-02-03T02:36:37;6.30;99.90
19586;DHT22;9939;49.246;9.106;2023-02-03T02:41:48;6.30;99.90
19586;DHT22;9939;49.246;9.106;2023-02-03T02:44:24;6.30;99.90
19586;DHT22;9939;49.246;9.106;2023-02-03T02:46:58;6.30;99.90
19586;DHT22;9939;49.246;9.106;2023-02-03T02:49:29;6.30;99.90
19586;DHT22;9939;49.246;9.106;2023-02-03T02:51:59;6.20;99.90
19586;DHT22;9939;49.246;9.106;2023-02-03T02:54:27;6.30;99.90
19586;DHT22;9939;49.246;9.106;2023-02-03T02:56:57;6.30;99.90
19586;DHT22;9939;49.246;9.106;2023-02-03T02:59:27;6.30;99.90
19586;DHT22;9939;49.246;9.106;2023-02-03T03:01:53;6.20;99.90
19586;DHT22;9939;49.246;9.106;2023-02-03T03:04:21;6.10;99.90
19586;DHT22;9939;49.246;9.106;2023-02-03T03:07:02;6.00;99.90
19586;DHT22;9939;49.246;9.106;2023-02-03T03:12:04;5.90;99.90
19586;DHT22;9939;49.246;9.106;2023-02-03T03:14:33;5.80;99.90
19586;DHT22;9939;49.246;9.106;2023-02-03T03:17:03;5.80;99.90
19586;DHT22;9939;49.246;9.106;2023-02-03T03:19:31;5.80;99.90
19586;DHT22;9939;49.246;9.106;2023-02-03T03:22:03;5.80;99.90
19586;DHT22;9939;49.246;9.106;2023-02-03T03:24:42;5.70;99.90
19586;DHT22;9939;49.246;9.106;2023-02-03T03:27:15;5.70;99.90
19586;DHT22;9939;49.246;9.106;2023-02-03T03:29:49;5.70;99.90
19586;DHT22;9939;49.246;9.106;2023-02-03T03:32:16;5.70;99.90
19586;DHT22;9939;49.246;9.106;2023-02-03T03:34:43;5.70;99.90
19586;DHT22;9939;49.246;9.106;2023-02-03T03:37:12;5.70;99.90
19586;DHT22;9939;49.246;9.106;2023-02-03T03:39:47;5.80;99.90
19586;DHT22;9939;49.246;9.106;2023-02-03T03:50:11;5.70;99.90
19586;DHT22;9939;49.246;9.106;2023-02-03T03:52:40;5.80;99.90
19586;DHT22;9939;49.246;9.106;2023-02-03T03:55:08;5.70;99.90
19586;DHT22;9939;49.246;9.106;2023-02-03T03:57:38;5.80;99.90
19586;DHT22;9939;49.246;9.106;2023-02-03T04:00:07;5.70;99.90
19586;DHT22;9939;49.246;9.106;2023-02-03T04:02:38;5.70;99.90
19586;DHT22;9939;49.246;9.106;2023-02-03T04:05:05;5.70;99.90
19586;DHT22;9939;49.246;9.106;2023-02-03T04:07:42;5.70;99.90
19586;DHT22;9939;49.246;9.106;2023-02-03T04:12:43;5.60;99.90
19586;DHT22;9939;49.246;9.106;2023-02-03T04:15:09;5.70;99.90
19586;DHT22;9939;49.246;9.106;2023-02-03T04:17:36;5.70;99.90
19586;DHT22;9939;49.246;9.106;2023-02-03T04:20:03;5.60;99.90
19586;DHT22;9939;49.246;9.106;2023-02-03T04:22:30;5.70;99.90
19586;DHT22;9939;49.246;9.106;2023-02-03T04:24:57;5.70;99.90
19586;DHT22;9939;49.246;9.106;2023-02-03T04:27:24;5.60;99.90
19586;DHT22;9939;49.246;9.106;2023-02-03T04:29:51;5.60;99.90
19586;DHT22;9939;49.246;9.106;2023-02-03T04:32:18;5.70;99.90
19586;DHT22;9939;49.246;9.106;2023-02-03T04:34:45;5.70;99.90
19586;DHT22;9939;49.246;9.106;2023-02-03T04:37:12;5.70;99.90
19586;DHT22;9939;49.246;9.106;2023-02-03T04:39:39;5.60;99.90
19586;DHT22;9939;49.246;9.106;2023-02-03T04:42:06;5.60;99.90
19586;DHT22;9939;49.246;9.106;2023-02-03T04:44:32;5.70;99.90
19586;DHT22;9939;49.246;9.106;2023-02-03T04:46:59;5.60;99.90
19586;DHT22;9939;49.246;9.106;2023-02-03T04:49:26;5.60;99.90
19586;DHT22;9939;49.246;9.106;2023-02-03T04:51:53;5.60;99.90
19586;DHT22;9939;49.246;9.106;2023-02-03T04:54:20;5.60;99.90
19586;DHT22;9939;49.246;9.106;2023-02-03T04:56:47;5.60;99.90
19586;DHT22;9939;49.246;9.106;2023-02-03T04:59:14;5.60;99.90
19586;DHT22;9939;49.246;9.106;2023-02-03T05:01:41;5.60;99.90
19586;DHT22;9939;49.246;9.106;2023-02-03T05:04:07;5.60;99.90
19586;DHT22;9939;49.246;9.106;2023-02-03T05:06:34;5.60;99.90
19586;DHT22;9939;49.246;9.106;2023-02-03T05:09:01;5.60;99.90
19586;DHT22;9939;49.246;9.106;2023-02-03T05:11:28;5.60;99.90
19586;DHT22;9939;49.246;9.106;2023-02-03T05:13:55;5.60;99.90
19586;DHT22;9939;49.246;9.106;2023-02-03T05:16:22;5.60;99.90
19586;DHT22;9939;49.246;9.106;2023-02-03T05:18:49;5.60;99.90
19586;DHT22;9939;49.246;9.106;2023-02-03T05:21:16;5.60;99.90
19586;DHT22;9939;49.246;9.106;2023-02-03T05:23:42;5.60;99.90
19586;DHT22;9939;49.246;9.106;2023-02-03T05:26:09;5.60;99.90
19586;DHT22;9939;49.246;9.106;2023-02-03T05:28:36;5.60;99.90
19586;DHT22;9939;49.246;9.106;2023-02-03T05:31:03;5.50;99.90
19586;DHT22;9939;49.246;9.106;2023-02-03T05:33:30;5.60;99.90
19586;DHT22;9939;49.246;9.106;2023-02-03T05:35:57;5.60;99.90
19586;DHT22;9939;49.246;9.106;2023-02-03T05:38:23;5.60;99.90
19586;DHT22;9939;49.246;9.106;2023-02-03T05:40:50;5.60;99.90
19586;DHT22;9939;49.246;9.106;2023-02-03T05:43:36;5.60;99.90
19586;DHT22;9939;49.246;9.106;2023-02-03T05:46:03;5.60;99.90
19586;DHT22;9939;49.246;9.106;2023-02-03T05:48:31;5.60;99.90
19586;DHT22;9939;49.246;9.106;2023-02-03T05:50:58;5.60;99.90
19586;DHT22;9939;49.246;9.106;2023-02-03T05:53:25;5.60;99.90
19586;DHT22;9939;49.246;9.106;2023-02-03T05:55:52;5.60;99.90
19586;DHT22;9939;49.246;9.106;2023-02-03T05:58:19;5.60;99.90
19586;DHT22;9939;49.246;9.106;2023-02-03T06:00:46;5.60;99.90
19586;DHT22;9939;49.246;9.106;2023-02-03T06:03:13;5.60;99.90
19586;DHT22;9939;49.246;9.106;2023-02-03T06:05:40;5.60;99.90
19586;DHT22;9939;49.246;9.106;2023-02-03T06:08:07;5.60;99.90
19586;DHT22;9939;49.246;9.106;2023-02-03T06:10:34;5.60;99.90
19586;DHT22;9939;49.246;9.106;2023-02-03T06:13:10;5.60;99.90
19586;DHT22;9939;49.246;9.106;2023-02-03T06:15:38;5.50;99.90
19586;DHT22;9939;49.246;9.106;2023-02-03T06:18:05;5.50;99.90
19586;DHT22;9939;49.246;9.106;2023-02-03T06:20:32;5.50;99.90
19586;DHT22;9939;49.246;9.106;2023-02-03T06:22:59;5.50;99.90
19586;DHT22;9939;49.246;9.106;2023-02-03T06:25:26;5.50;99.90
19586;DHT22;9939;49.246;9.106;2023-02-03T06:27:53;5.50;99.90
19586;DHT22;9939;49.246;9.106;2023-02-03T06:30:20;5.50;99.90
19586;DHT22;9939;49.246;9.106;2023-02-03T06:32:49;5.40;99.90
19586;DHT22;9939;49.246;9.106;2023-02-03T06:35:16;5.40;99.90
19586;DHT22;9939;49.246;9.106;2023-02-03T06:37:43;5.50;99.90
19586;DHT22;9939;49.246;9.106;2023-02-03T06:40:10;5.50;99.90
19586;DHT22;9939;49.246;9.106;2023-02-03T06:42:37;5.50;99.90
19586;DHT22;9939;49.246;9.106;2023-02-03T06:45:04;5.50;99.90
19586;DHT22;9939;49.246;9.106;2023-02-03T06:47:31;5.50;99.90
19586;DHT22;9939;49.246;9.106;2023-02-03T06:49:58;5.50;99.90
19586;DHT22;9939;49.246;9.106;2023-02-03T06:52:24;5.50;99.90
19586;DHT22;9939;49.246;9.106;2023-02-03T06:54:51;5.50;99.90
19586;DHT22;9939;49.246;9.106;2023-02-03T06:57:18;5.50;99.90
19586;DHT22;9939;49.246;9.106;2023-02-03T06:59:45;5.50;99.90
19586;DHT22;9939;49.246;9.106;2023-02-03T07:02:11;5.60;99.90
19586;DHT22;9939;49.246;9.106;2023-02-03T07:04:38;5.50;99.90
19586;DHT22;9939;49.246;9.106;2023-02-03T07:07:05;5.50;99.90
19586;DHT22;9939;49.246;9.106;2023-02-03T07:09:32;5.50;99.90
19586;DHT22;9939;49.246;9.106;2023-02-03T07:11:59;5.60;99.90
19586;DHT22;9939;49.246;9.106;2023-02-03T07:14:26;5.60;99.90
19586;DHT22;9939;49.246;9.106;2023-02-03T07:16:52;5.60;99.90
19586;DHT22;9939;49.246;9.106;2023-02-03T07:19:20;5.60;99.90
19586;DHT22;9939;49.246;9.106;2023-02-03T07:21:46;5.50;99.90
19586;DHT22;9939;49.246;9.106;2023-02-03T07:24:13;5.50;99.90
19586;DHT22;9939;49.246;9.106;2023-02-03T07:26:40;5.60;99.90
19586;DHT22;9939;49.246;9.106;2023-02-03T07:29:07;5.60;99.90
19586;DHT22;9939;49.246;9.106;2023-02-03T07:31:34;5.60;99.90
19586;DHT22;9939;49.246;9.106;2023-02-03T07:34:01;5.60;99.90
19586;DHT22;9939;49.246;9.106;2023-02-03T07:36:28;5.60;99.90
19586;DHT22;9939;49.246;9.106;2023-02-03T07:38:55;5.60;99.90
19586;DHT22;9939;49.246;9.106;2023-02-03T07:41:21;5.60;99.90
19586;DHT22;9939;49.246;9.106;2023-02-03T07:43:48;5.60;99.90
19586;DHT22;9939;49.246;9.106;2023-02-03T07:46:15;5.60;99.90
19586;DHT22;9939;49.246;9.106;2023-02-03T07:48:42;5.60;99.90
19586;DHT22;9939;49.246;9.106;2023-02-03T07:51:09;5.60;99.90
19586;DHT22;9939;49.246;9.106;2023-02-03T07:53:35;5.60;99.90
19586;DHT22;9939;49.246;9.106;2023-02-03T07:56:03;5.50;99.90
19586;DHT22;9939;49.246;9.106;2023-02-03T07:58:30;5.60;99.90
19586;DHT22;9939;49.246;9.106;2023-02-03T08:00:58;5.50;99.90
19586;DHT22;9939;49.246;9.106;2023-02-03T08:03:25;5.50;99.90
19586;DHT22;9939;49.246;9.106;2023-02-03T08:05:51;5.50;99.90
19586;DHT22;9939;49.246;9.106;2023-02-03T08:08:19;5.50;99.90
19586;DHT22;9939;49.246;9.106;2023-02-03T08:10:45;5.50;99.90
19586;DHT22;9939;49.246;9.106;2023-02-03T08:13:12;5.50;99.90
19586;DHT22;9939;49.246;9.106;2023-02-03T08:15:39;5.50;99.90
19586;DHT22;9939;49.246;9.106;2023-02-03T08:18:06;5.60;99.90
19586;DHT22;9939;49.246;9.106;2023-02-03T08:20:35;5.60;99.90
19586;DHT22;9939;49.246;9.106;2023-02-03T08:23:01;5.50;99.90
19586;DHT22;9939;49.246;9.106;2023-02-03T08:25:28;5.50;99.90
19586;DHT22;9939;49.246;9.106;2023-02-03T08:27:55;5.50;99.90
19586;DHT22;9939;49.246;9.106;2023-02-03T08:30:22;5.60;99.90
19586;DHT22;9939;49.246;9.106;2023-02-03T08:32:49;5.60;99.90
19586;DHT22;9939;49.246;9.106;2023-02-03T08:35:16;5.60;99.90
19586;DHT22;9939;49.246;9.106;2023-02-03T08:37:43;5.50;99.90
19586;DHT22;9939;49.246;9.106;2023-02-03T08:40:09;5.60;99.90
19586;DHT22;9939;49.246;9.106;2023-02-03T08:42:36;5.60;99.90
19586;DHT22;9939;49.246;9.106;2023-02-03T08:45:04;5.60;99.90
19586;DHT22;9939;49.246;9.106;2023-02-03T08:47:31;5.60;99.90
19586;DHT22;9939;49.246;9.106;2023-02-03T08:49:57;5.60;99.90
19586;DHT22;9939;49.246;9.106;2023-02-03T08:52:24;5.60;99.90
19586;DHT22;9939;49.246;9.106;2023-02-03T08:54:51;5.70;99.90
19586;DHT22;9939;49.246;9.106;2023-02-03T08:57:18;5.70;99.90
19586;DHT22;9939;49.246;9.106;2023-02-03T08:59:46;5.70;99.90
19586;DHT22;9939;49.246;9.106;2023-02-03T09:02:14;5.80;99.90
19586;DHT22;9939;49.246;9.106;2023-02-03T09:04:41;5.80;99.90
19586;DHT22;9939;49.246;9.106;2023-02-03T09:07:09;5.80;99.90
19586;DHT22;9939;49.246;9.106;2023-02-03T09:09:36;5.80;99.90
19586;DHT22;9939;49.246;9.106;2023-02-03T09:12:07;5.90;99.90
19586;DHT22;9939;49.246;9.106;2023-02-03T09:14:33;5.90;99.90
19586;DHT22;9939;49.246;9.106;2023-02-03T09:17:01;5.90;99.90
19586;DHT22;9939;49.246;9.106;2023-02-03T09:19:29;6.00;99.90
19586;DHT22;9939;49.246;9.106;2023-02-03T09:21:56;6.10;99.90
19586;DHT22;9939;49.246;9.106;2023-02-03T09:24:24;6.10;99.90
19586;DHT22;9939;49.246;9.106;2023-02-03T09:26:50;6.00;99.90
19586;DHT22;9939;49.246;9.106;2023-02-03T09:29:18;6.00;99.90
19586;DHT22;9939;49.246;9.106;2023-02-03T09:31:44;6.00;99.90
19586;DHT22;9939;49.246;9.106;2023-02-03T09:34:13;6.00;99.90
19586;DHT22;9939;49.246;9.106;2023-02-03T09:36:40;6.00;99.90
19586;DHT22;9939;49.246;9.106;2023-02-03T09:39:08;6.10;99.90
19586;DHT22;9939;49.246;9.106;2023-02-03T09:46:49;6.50;99.90
19586;DHT22;9939;49.246;9.106;2023-02-03T09:49:30;6.50;99.90
19586;DHT22;9939;49.246;9.106;2023-02-03T09:52:09;6.40;99.90
19586;DHT22;9939;49.246;9.106;2023-02-03T09:54:39;6.40;99.90
19586;DHT22;9939;49.246;9.106;2023-02-03T09:57:17;6.40;99.90
19586;DHT22;9939;49.246;9.106;2023-02-03T09:59:46;6.40;99.90
19586;DHT22;9939;49.246;9.106;2023-02-03T10:04:50;6.40;99.90
19586;DHT22;9939;49.246;9.106;2023-02-03T10:10:16;6.70;99.90
19586;DHT22;9939;49.246;9.106;2023-02-03T10:12:59;6.50;99.90
19586;DHT22;9939;49.246;9.106;2023-02-03T10:18:04;6.20;99.90
19586;DHT22;9939;49.246;9.106;2023-02-03T10:20:39;6.20;99.90
19586;DHT22;9939;49.246;9.106;2023-02-03T10:23:15;6.20;99.90
19586;DHT22;9939;49.246;9.106;2023-02-03T10:25:44;6.30;99.90
19586;DHT22;9939;49.246;9.106;2023-02-03T10:28:19;6.30;99.90
19586;DHT22;9939;49.246;9.106;2023-02-03T10:30:59;6.40;99.90
19586;DHT22;9939;49.246;9.106;2023-02-03T10:33:28;6.40;99.90
19586;DHT22;9939;49.246;9.106;2023-02-03T10:36:39;6.40;99.90
19586;DHT22;9939;49.246;9.106;2023-02-03T10:41:30;6.30;99.90
19586;DHT22;9939;49.246;9.106;2023-02-03T10:43:57;6.30;99.90
19586;DHT22;9939;49.246;9.106;2023-02-03T10:46:28;6.20;99.90
19586;DHT22;9939;49.246;9.106;2023-02-03T10:48:55;6.20;99.90
19586;DHT22;9939;49.246;9.106;2023-02-03T10:51:24;6.20;99.90
19586;DHT22;9939;49.246;9.106;2023-02-03T10:53:51;6.20;99.90
19586;DHT22;9939;49.246;9.106;2023-02-03T10:56:20;6.20;99.90
19586;DHT22;9939;49.246;9.106;2023-02-03T10:58:57;6.10;99.90
19586;DHT22;9939;49.246;9.106;2023-02-03T11:01:43;6.10;99.90
19586;DHT22;9939;49.246;9.106;2023-02-03T11:06:52;6.00;99.90
19586;DHT22;9939;49.246;9.106;2023-02-03T11:09:27;6.00;99.90
19586;DHT22;9939;49.246;9.106;2023-02-03T11:12:05;6.00;99.90
19586;DHT22;9939;49.246;9.106;2023-02-03T11:14:36;6.10;99.90
19586;DHT22;9939;49.246;9.106;2023-02-03T11:17:06;6.10;99.90
19586;DHT22;9939;49.246;9.106;2023-02-03T11:19:35;6.10;99.90
19586;DHT22;9939;49.246;9.106;2023-02-03T11:22:03;6.20;99.90
19586;DHT22;9939;49.246;9.106;2023-02-03T11:24:31;6.20;99.90
19586;DHT22;9939;49.246;9.106;2023-02-03T11:27:03;6.10;99.90
19586;DHT22;9939;49.246;9.106;2023-02-03T11:29:33;6.20;99.90
19586;DHT22;9939;49.246;9.106;2023-02-03T11:32:02;6.20;99.90
19586;DHT22;9939;49.246;9.106;2023-02-03T11:34:30;6.20;99.90
19586;DHT22;9939;49.246;9.106;2023-02-03T11:39:44;6.20;99.90
19586;DHT22;9939;49.246;9.106;2023-02-03T11:42:20;6.30;99.90
19586;DHT22;9939;49.246;9.106;2023-02-03T11:44:47;6.30;99.90
19586;DHT22;9939;49.246;9.106;2023-02-03T11:47:13;6.30;99.90
19586;DHT22;9939;49.246;9.106;2023-02-03T11:50:02;6.30;99.90
19586;DHT22;9939;49.246;9.106;2023-02-03T11:55:14;6.30;99.90
19586;DHT22;9939;49.246;9.106;2023-02-03T12:06:17;6.40;99.90
19586;DHT22;9939;49.246;9.106;2023-02-03T12:08:30;6.40;99.90
19586;DHT22;9939;49.246;9.106;2023-02-03T12:16:03;6.60;99.90
19586;DHT22;9939;49.246;9.106;2023-02-03T12:19:40;6.60;99.90
19586;DHT22;9939;49.246;9.106;2023-02-03T12:27:26;6.80;99.90
19586;DHT22;9939;49.246;9.106;2023-02-03T12:30:02;6.80;99.90
19586;DHT22;9939;49.246;9.106;2023-02-03T12:32:39;6.80;99.90
19586;DHT22;9939;49.246;9.106;2023-02-03T12:35:12;6.70;99.90
19586;DHT22;9939;49.246;9.106;2023-02-03T12:37:47;6.60;99.90
19586;DHT22;9939;49.246;9.106;2023-02-03T12:40:27;6.60;99.90
19586;DHT22;9939;49.246;9.106;2023-02-03T12:43:03;6.70;99.90
19586;DHT22;9939;49.246;9.106;2023-02-03T12:45:36;6.70;99.90
19586;DHT22;9939;49.246;9.106;2023-02-03T12:48:06;6.60;99.90
19586;DHT22;9939;49.246;9.106;2023-02-03T12:50:44;6.60;99.90
19586;DHT22;9939;49.246;9.106;2023-02-03T12:53:20;6.60;99.90
19586;DHT22;9939;49.246;9.106;2023-02-03T12:55:51;6.60;99.90
19586;DHT22;9939;49.246;9.106;2023-02-03T12:58:25;6.60;99.90
19586;DHT22;9939;49.246;9.106;2023-02-03T13:00:56;6.60;99.90
19586;DHT22;9939;49.246;9.106;2023-02-03T13:06:10;6.60;99.90
19586;DHT22;9939;49.246;9.106;2023-02-03T13:08:39;6.60;99.90
19586;DHT22;9939;49.246;9.106;2023-02-03T13:11:10;6.60;99.90
19586;DHT22;9939;49.246;9.106;2023-02-03T13:13:43;6.60;99.90
19586;DHT22;9939;49.246;9.106;2023-02-03T13:16:11;6.70;99.90
19586;DHT22;9939;49.246;9.106;2023-02-03T13:18:44;6.70;99.90
19586;DHT22;9939;49.246;9.106;2023-02-03T13:21:11;6.60;99.90
19586;DHT22;9939;49.246;9.106;2023-02-03T13:23:40;6.60;99.90
19586;DHT22;9939;49.246;9.106;2023-02-03T13:36:47;6.60;99.90
19586;DHT22;9939;49.246;9.106;2023-02-03T13:39:32;6.70;99.90
19586;DHT22;9939;49.246;9.106;2023-02-03T13:44:43;6.70;99.90
19586;DHT22;9939;49.246;9.106;2023-02-03T13:47:15;6.70;99.90
19586;DHT22;9939;49.246;9.106;2023-02-03T13:49:44;6.80;99.90
19586;DHT22;9939;49.246;9.106;2023-02-03T13:52:23;6.80;99.90
19586;DHT22;9939;49.246;9.106;2023-02-03T13:54:51;6.70;99.90
19586;DHT22;9939;49.246;9.106;2023-02-03T13:57:19;6.90;99.90
19586;DHT22;9939;49.246;9.106;2023-02-03T13:59:47;6.90;99.90
19586;DHT22;9939;49.246;9.106;2023-02-03T14:07:33;7.10;99.90
19586;DHT22;9939;49.246;9.106;2023-02-03T14:25:20;7.50;99.90
19586;DHT22;9939;49.246;9.106;2023-02-03T14:27:48;7.50;99.90
19586;DHT22;9939;49.246;9.106;2023-02-03T14:30:24;7.50;99.90
19586;DHT22;9939;49.246;9.106;2023-02-03T14:32:53;7.50;99.90
19586;DHT22;9939;49.246;9.106;2023-02-03T14:35:28;7.50;99.90
19586;DHT22;9939;49.246;9.106;2023-02-03T14:37:56;7.60;99.90
19586;DHT22;9939;49.246;9.106;2023-02-03T14:58:55;7.50;99.90
19586;DHT22;9939;49.246;9.106;2023-02-03T15:06:52;7.30;99.90
19586;DHT22;9939;49.246;9.106;2023-02-03T15:11:55;7.10;99.90
19586;DHT22;9939;49.246;9.106;2023-02-03T15:14:26;7.10;99.90
19586;DHT22;9939;49.246;9.106;2023-02-03T15:16:54;7.10;99.90
19586;DHT22;9939;49.246;9.106;2023-02-03T15:19:22;7.10;99.90
19586;DHT22;9939;49.246;9.106;2023-02-03T15:21:49;7.10;99.90
19586;DHT22;9939;49.246;9.106;2023-02-03T15:24:17;7.10;99.90
19586;DHT22;9939;49.246;9.106;2023-02-03T15:26:48;7.00;99.90
19586;DHT22;9939;49.246;9.106;2023-02-03T15:29:19;7.00;99.90
19586;DHT22;9939;49.246;9.106;2023-02-03T15:31:51;7.00;99.90
19586;DHT22;9939;49.246;9.106;2023-02-03T15:34:33;7.00;99.90
19586;DHT22;9939;49.246;9.106;2023-02-03T15:37:06;7.00;99.90
19586;DHT22;9939;49.246;9.106;2023-02-03T15:42:12;7.00;99.90
19586;DHT22;9939;49.246;9.106;2023-02-03T15:44:40;7.00;99.90
19586;DHT22;9939;49.246;9.106;2023-02-03T15:50:20;6.90;99.90
19586;DHT22;9939;49.246;9.106;2023-02-03T15:52:48;6.90;99.90
19586;DHT22;9939;49.246;9.106;2023-02-03T15:55:18;6.90;99.90
19586;DHT22;9939;49.246;9.106;2023-02-03T15:57:47;6.90;99.90
19586;DHT22;9939;49.246;9.106;2023-02-03T16:00:22;6.90;99.90
19586;DHT22;9939;49.246;9.106;2023-02-03T16:02:53;6.90;99.90
19586;DHT22;9939;49.246;9.106;2023-02-03T16:05:30;6.90;99.90
19586;DHT22;9939;49.246;9.106;2023-02-03T16:10:44;6.90;99.90
19586;DHT22;9939;49.246;9.106;2023-02-03T16:13:24;7.00;99.90
19586;DHT22;9939;49.246;9.106;2023-02-03T16:16:13;7.00;99.90
19586;DHT22;9939;49.246;9.106;2023-02-03T16:18:47;7.00;99.90
19586;DHT22;9939;49.246;9.106;2023-02-03T16:21:35;7.00;99.90
19586;DHT22;9939;49.246;9.106;2023-02-03T16:24:03;7.00;99.90
19586;DHT22;9939;49.246;9.106;2023-02-03T16:26:30;7.00;99.90
19586;DHT22;9939;49.246;9.106;2023-02-03T16:31:46;7.00;99.90
19586;DHT22;9939;49.246;9.106;2023-02-03T16:34:33;7.00;99.90
19586;DHT22;9939;49.246;9.106;2023-02-03T16:37:22;7.00;99.90
19586;DHT22;9939;49.246;9.106;2023-02-03T16:40:11;7.00;99.90
19586;DHT22;9939;49.246;9.106;2023-02-03T16:42:57;7.00;99.90
19586;DHT22;9939;49.246;9.106;2023-02-03T16:45:42;6.90;99.90
19586;DHT22;9939;49.246;9.106;2023-02-03T16:48:28;7.00;99.90
19586;DHT22;9939;49.246;9.106;2023-02-03T16:51:14;7.00;99.90
19586;DHT22;9939;49.246;9.106;2023-02-03T16:53:42;7.00;99.90
19586;DHT22;9939;49.246;9.106;2023-02-03T16:56:11;7.00;99.90
19586;DHT22;9939;49.246;9.106;2023-02-03T16:58:38;7.00;99.90
19586;DHT22;9939;49.246;9.106;2023-02-03T17:01:06;7.00;99.90
19586;DHT22;9939;49.246;9.106;2023-02-03T17:03:33;7.00;99.90
19586;DHT22;9939;49.246;9.106;2023-02-03T17:06:01;7.00;99.90
19586;DHT22;9939;49.246;9.106;2023-02-03T17:08:29;7.00;99.90
19586;DHT22;9939;49.246;9.106;2023-02-03T17:11:00;7.00;99.90
19586;DHT22;9939;49.246;9.106;2023-02-03T17:13:27;7.10;99.90
19586;DHT22;9939;49.246;9.106;2023-02-03T17:15:54;7.10;99.90
19586;DHT22;9939;49.246;9.106;2023-02-03T17:18:21;7.20;99.90
19586;DHT22;9939;49.246;9.106;2023-02-03T17:20:48;7.10;99.90
19586;DHT22;9939;49.246;9.106;2023-02-03T17:23:15;7.10;99.90
19586;DHT22;9939;49.246;9.106;2023-02-03T17:25:43;7.10;99.90
19586;DHT22;9939;49.246;9.106;2023-02-03T17:28:11;7.10;99.90
19586;DHT22;9939;49.246;9.106;2023-02-03T17:30:39;7.10;99.90
19586;DHT22;9939;49.246;9.106;2023-02-03T17:33:06;7.00;99.90
19586;DHT22;9939;49.246;9.106;2023-02-03T17:35:43;7.10;99.90
19586;DHT22;9939;49.246;9.106;2023-02-03T17:38:11;7.10;99.90
19586;DHT22;9939;49.246;9.106;2023-02-03T17:40:41;7.00;99.90
19586;DHT22;9939;49.246;9.106;2023-02-03T17:43:27;7.00;99.90
19586;DHT22;9939;49.246;9.106;2023-02-03T17:46:14;6.90;99.90
19586;DHT22;9939;49.246;9.106;2023-02-03T17:48:59;6.90;99.90
19586;DHT22;9939;49.246;9.106;2023-02-03T17:51:43;6.90;99.90
19586;DHT22;9939;49.246;9.106;2023-02-03T17:54:27;6.90;99.90
19586;DHT22;9939;49.246;9.106;2023-02-03T17:56:54;6.90;99.90
19586;DHT22;9939;49.246;9.106;2023-02-03T17:59:21;6.90;99.90
19586;DHT22;9939;49.246;9.106;2023-02-03T18:01:48;6.80;99.90
19586;DHT22;9939;49.246;9.106;2023-02-03T18:04:15;6.90;99.90
19586;DHT22;9939;49.246;9.106;2023-02-03T18:06:42;6.80;99.90
19586;DHT22;9939;49.246;9.106;2023-02-03T18:09:09;6.80;99.90
19586;DHT22;9939;49.246;9.106;2023-02-03T18:11:36;6.80;99.90
19586;DHT22;9939;49.246;9.106;2023-02-03T18:14:04;6.80;99.90
19586;DHT22;9939;49.246;9.106;2023-02-03T18:16:31;6.80;99.90
19586;DHT22;9939;49.246;9.106;2023-02-03T18:19:01;6.80;99.90
19586;DHT22;9939;49.246;9.106;2023-02-03T18:21:29;6.80;99.90
19586;DHT22;9939;49.246;9.106;2023-02-03T18:23:58;6.90;99.90
19586;DHT22;9939;49.246;9.106;2023-02-03T18:26:28;6.90;99.90
19586;DHT22;9939;49.246;9.106;2023-02-03T18:28:55;6.80;99.90
19586;DHT22;9939;49.246;9.106;2023-02-03T18:31:22;6.90;99.90
19586;DHT22;9939;49.246;9.106;2023-02-03T18:33:50;6.90;99.90
19586;DHT22;9939;49.246;9.106;2023-02-03T18:36:17;6.80;99.90
19586;DHT22;9939;49.246;9.106;2023-02-03T18:38:44;6.90;99.90
19586;DHT22;9939;49.246;9.106;2023-02-03T18:41:16;6.80;99.90
19586;DHT22;9939;49.246;9.106;2023-02-03T18:43:43;6.90;99.90
19586;DHT22;9939;49.246;9.106;2023-02-03T18:46:12;6.90;99.90
19586;DHT22;9939;49.246;9.106;2023-02-03T18:48:39;6.90;99.90